sensor_id;sensor_type;location;lat;lon;timestamp;temperature;humidity
78366;HTU21D;67641;59.864;30.464;2024-02-23T00:01:44;13.85;65.56
78366;HTU21D;67641;59.864;30.464;2024-02-23T00:04:11;13.83;65.03
78366;HTU21D;67641;59.864;30.464;2024-02-23T00:06:37;13.83;65.24
78366;HTU21D;67641;59.864;30.464;2024-02-23T00:09:03;13.82;65.97
78366;HTU21D;67641;59.864;30.464;2024-02-23T00:11:30;13.80;65.30
78366;HTU21D;67641;59.864;30.464;2024-02-23T00:13:58;13.77;65.66
78366;HTU21D;67641;59.864;30.464;2024-02-23T00:16:24;13.75;65.44
78366;HTU21D;67641;59.864;30.464;2024-02-23T00:18:50;13.75;65.77
78366;HTU21D;67641;59.864;30.464;2024-02-23T00:21:16;13.75;65.66
78366;HTU21D;67641;59.864;30.464;2024-02-23T00:23:42;13.75;65.75
78366;HTU21D;67641;59.864;30.464;2024-02-23T00:26:08;13.74;65.45
78366;HTU21D;67641;59.864;30.464;2024-02-23T00:28:34;13.73;65.85
78366;HTU21D;67641;59.864;30.464;2024-02-23T00:31:01;13.74;66.48
78366;HTU21D;67641;59.864;30.464;2024-02-23T00:33:27;13.75;66.58
78366;HTU21D;67641;59.864;30.464;2024-02-23T00:35:53;13.75;66.86
78366;HTU21D;67641;59.864;30.464;2024-02-23T00:38:19;13.77;67.13
78366;HTU21D;67641;59.864;30.464;2024-02-23T00:40:45;13.75;66.98
78366;HTU21D;67641;59.864;30.464;2024-02-23T00:43:12;13.73;67.29
78366;HTU21D;67641;59.864;30.464;2024-02-23T00:45:38;13.75;67.65
78366;HTU21D;67641;59.864;30.464;2024-02-23T00:48:05;13.76;68.28
78366;HTU21D;67641;59.864;30.464;2024-02-23T00:50:32;13.77;67.91
78366;HTU21D;67641;59.864;30.464;2024-02-23T00:52:58;13.79;67.49
78366;HTU21D;67641;59.864;30.464;2024-02-23T00:55:24;13.78;67.59
78366;HTU21D;67641;59.864;30.464;2024-02-23T00:57:52;13.78;67.76
78366;HTU21D;67641;59.864;30.464;2024-02-23T01:00:18;13.78;67.60
78366;HTU21D;67641;59.864;30.464;2024-02-23T01:02:44;13.77;67.57
78366;HTU21D;67641;59.864;30.464;2024-02-23T01:05:11;13.76;67.04
78366;HTU21D;67641;59.864;30.464;2024-02-23T01:07:37;13.70;66.99
78366;HTU21D;67641;59.864;30.464;2024-02-23T01:10:03;13.66;66.77
78366;HTU21D;67641;59.864;30.464;2024-02-23T01:12:29;13.62;66.72
78366;HTU21D;67641;59.864;30.464;2024-02-23T01:14:56;13.62;66.80
78366;HTU21D;67641;59.864;30.464;2024-02-23T01:17:22;13.62;67.40
78366;HTU21D;67641;59.864;30.464;2024-02-23T01:19:48;13.63;66.49
78366;HTU21D;67641;59.864;30.464;2024-02-23T01:22:15;13.62;66.14
78366;HTU21D;67641;59.864;30.464;2024-02-23T01:24:41;13.60;65.54
78366;HTU21D;67641;59.864;30.464;2024-02-23T01:27:07;13.61;65.91
78366;HTU21D;67641;59.864;30.464;2024-02-23T01:29:34;13.61;66.16
78366;HTU21D;67641;59.864;30.464;2024-02-23T01:32:00;13.60;65.50
78366;HTU21D;67641;59.864;30.464;2024-02-23T01:34:26;13.60;66.08
78366;HTU21D;67641;59.864;30.464;2024-02-23T01:36:53;13.56;65.91
78366;HTU21D;67641;59.864;30.464;2024-02-23T01:39:19;13.55;66.54
78366;HTU21D;67641;59.864;30.464;2024-02-23T01:41:45;13.53;66.55
78366;HTU21D;67641;59.864;30.464;2024-02-23T01:44:11;13.49;66.15
78366;HTU21D;67641;59.864;30.464;2024-02-23T01:46:38;13.47;65.68
78366;HTU21D;67641;59.864;30.464;2024-02-23T01:49:06;13.46;65.38
78366;HTU21D;67641;59.864;30.464;2024-02-23T01:51:34;13.44;65.53
78366;HTU21D;67641;59.864;30.464;2024-02-23T01:54:01;13.46;65.19
78366;HTU21D;67641;59.864;30.464;2024-02-23T01:56:27;13.47;65.10
78366;HTU21D;67641;59.864;30.464;2024-02-23T01:58:55;13.46;64.85
78366;HTU21D;67641;59.864;30.464;2024-02-23T02:01:21;13.47;64.57
78366;HTU21D;67641;59.864;30.464;2024-02-23T02:03:47;13.49;64.67
78366;HTU21D;67641;59.864;30.464;2024-02-23T02:06:14;13.45;64.24
78366;HTU21D;67641;59.864;30.464;2024-02-23T02:08:41;13.45;64.12
78366;HTU21D;67641;59.864;30.464;2024-02-23T02:11:07;13.46;64.80
78366;HTU21D;67641;59.864;30.464;2024-02-23T02:13:33;13.48;64.55
78366;HTU21D;67641;59.864;30.464;2024-02-23T02:16:02;13.45;64.27
78366;HTU21D;67641;59.864;30.464;2024-02-23T02:18:28;13.46;64.78
78366;HTU21D;67641;59.864;30.464;2024-02-23T02:20:55;13.46;64.80
78366;HTU21D;67641;59.864;30.464;2024-02-23T02:23:23;13.47;64.93
78366;HTU21D;67641;59.864;30.464;2024-02-23T02:25:53;13.47;64.80
78366;HTU21D;67641;59.864;30.464;2024-02-23T02:28:20;13.46;64.85
78366;HTU21D;67641;59.864;30.464;2024-02-23T02:30:46;13.43;65.08
78366;HTU21D;67641;59.864;30.464;2024-02-23T02:33:12;13.41;64.89
78366;HTU21D;67641;59.864;30.464;2024-02-23T02:35:38;13.40;65.21
78366;HTU21D;67641;59.864;30.464;2024-02-23T02:38:04;13.39;65.73
78366;HTU21D;67641;59.864;30.464;2024-02-23T02:40:30;13.39;64.87
78366;HTU21D;67641;59.864;30.464;2024-02-23T02:42:58;13.35;65.00
78366;HTU21D;67641;59.864;30.464;2024-02-23T02:45:24;13.35;64.92
78366;HTU21D;67641;59.864;30.464;2024-02-23T02:47:50;13.34;64.46
78366;HTU21D;67641;59.864;30.464;2024-02-23T02:50:17;13.35;64.51
78366;HTU21D;67641;59.864;30.464;2024-02-23T02:52:43;13.31;64.08
78366;HTU21D;67641;59.864;30.464;2024-02-23T02:55:09;13.30;64.79
78366;HTU21D;67641;59.864;30.464;2024-02-23T02:57:35;13.31;64.18
78366;HTU21D;67641;59.864;30.464;2024-02-23T03:00:04;13.29;63.98
78366;HTU21D;67641;59.864;30.464;2024-02-23T03:02:34;13.31;63.76
78366;HTU21D;67641;59.864;30.464;2024-02-23T03:05:01;13.31;63.37
78366;HTU21D;67641;59.864;30.464;2024-02-23T03:07:27;13.30;62.87
78366;HTU21D;67641;59.864;30.464;2024-02-23T03:09:53;13.31;63.11
78366;HTU21D;67641;59.864;30.464;2024-02-23T03:12:20;13.32;62.89
78366;HTU21D;67641;59.864;30.464;2024-02-23T03:14:46;13.33;62.66
78366;HTU21D;67641;59.864;30.464;2024-02-23T03:17:12;13.33;62.90
78366;HTU21D;67641;59.864;30.464;2024-02-23T03:19:38;13.33;63.56
78366;HTU21D;67641;59.864;30.464;2024-02-23T03:22:05;13.32;63.29
78366;HTU21D;67641;59.864;30.464;2024-02-23T03:24:31;13.32;62.82
78366;HTU21D;67641;59.864;30.464;2024-02-23T03:26:57;13.32;63.35
78366;HTU21D;67641;59.864;30.464;2024-02-23T03:29:25;13.30;63.13
78366;HTU21D;67641;59.864;30.464;2024-02-23T03:31:57;13.29;63.63
78366;HTU21D;67641;59.864;30.464;2024-02-23T03:34:24;13.24;63.49
78366;HTU21D;67641;59.864;30.464;2024-02-23T03:36:50;13.17;63.53
78366;HTU21D;67641;59.864;30.464;2024-02-23T03:39:16;13.10;63.53
78366;HTU21D;67641;59.864;30.464;2024-02-23T03:41:42;13.05;63.50
78366;HTU21D;67641;59.864;30.464;2024-02-23T03:44:08;13.05;64.18
78366;HTU21D;67641;59.864;30.464;2024-02-23T03:46:35;13.03;63.59
78366;HTU21D;67641;59.864;30.464;2024-02-23T03:49:01;13.02;63.66
78366;HTU21D;67641;59.864;30.464;2024-02-23T03:51:27;13.04;63.93
78366;HTU21D;67641;59.864;30.464;2024-02-23T03:53:53;13.02;63.35
78366;HTU21D;67641;59.864;30.464;2024-02-23T03:56:20;13.02;63.51
78366;HTU21D;67641;59.864;30.464;2024-02-23T03:58:46;13.02;63.95
78366;HTU21D;67641;59.864;30.464;2024-02-23T04:01:12;13.04;64.08
78366;HTU21D;67641;59.864;30.464;2024-02-23T04:03:38;13.03;64.16
78366;HTU21D;67641;59.864;30.464;2024-02-23T04:06:04;13.02;63.73
78366;HTU21D;67641;59.864;30.464;2024-02-23T04:08:31;13.02;64.24
78366;HTU21D;67641;59.864;30.464;2024-02-23T04:10:57;13.03;63.95
78366;HTU21D;67641;59.864;30.464;2024-02-23T04:13:23;13.02;64.68
78366;HTU21D;67641;59.864;30.464;2024-02-23T04:15:50;12.99;64.79
78366;HTU21D;67641;59.864;30.464;2024-02-23T04:18:16;12.99;64.24
78366;HTU21D;67641;59.864;30.464;2024-02-23T04:20:42;12.95;64.31
78366;HTU21D;67641;59.864;30.464;2024-02-23T04:23:08;12.96;64.85
78366;HTU21D;67641;59.864;30.464;2024-02-23T04:25:34;12.97;65.21
78366;HTU21D;67641;59.864;30.464;2024-02-23T04:28:00;12.95;65.01
78366;HTU21D;67641;59.864;30.464;2024-02-23T04:30:26;12.95;65.37
78366;HTU21D;67641;59.864;30.464;2024-02-23T04:32:52;12.97;65.31
78366;HTU21D;67641;59.864;30.464;2024-02-23T04:35:18;12.99;64.81
78366;HTU21D;67641;59.864;30.464;2024-02-23T04:37:45;13.00;64.66
78366;HTU21D;67641;59.864;30.464;2024-02-23T04:40:11;13.04;64.42
78366;HTU21D;67641;59.864;30.464;2024-02-23T04:42:37;13.07;64.24
78366;HTU21D;67641;59.864;30.464;2024-02-23T04:45:05;13.10;63.78
78366;HTU21D;67641;59.864;30.464;2024-02-23T04:47:32;13.17;63.07
78366;HTU21D;67641;59.864;30.464;2024-02-23T04:49:58;13.29;62.53
78366;HTU21D;67641;59.864;30.464;2024-02-23T04:52:25;13.38;62.07
78366;HTU21D;67641;59.864;30.464;2024-02-23T04:54:51;13.47;60.53
78366;HTU21D;67641;59.864;30.464;2024-02-23T04:57:17;13.50;60.41
78366;HTU21D;67641;59.864;30.464;2024-02-23T04:59:43;13.61;59.76
78366;HTU21D;67641;59.864;30.464;2024-02-23T05:02:09;13.71;59.54
78366;HTU21D;67641;59.864;30.464;2024-02-23T05:04:35;13.81;58.98
78366;HTU21D;67641;59.864;30.464;2024-02-23T05:07:02;13.96;58.94
78366;HTU21D;67641;59.864;30.464;2024-02-23T05:09:28;13.99;59.10
78366;HTU21D;67641;59.864;30.464;2024-02-23T05:11:55;14.06;58.65
78366;HTU21D;67641;59.864;30.464;2024-02-23T05:14:24;14.36;58.70
78366;HTU21D;67641;59.864;30.464;2024-02-23T05:16:51;14.74;57.81
78366;HTU21D;67641;59.864;30.464;2024-02-23T05:19:17;15.04;56.32
78366;HTU21D;67641;59.864;30.464;2024-02-23T05:21:43;15.32;55.69
78366;HTU21D;67641;59.864;30.464;2024-02-23T05:24:11;15.43;55.33
78366;HTU21D;67641;59.864;30.464;2024-02-23T05:26:37;15.54;55.33
78366;HTU21D;67641;59.864;30.464;2024-02-23T05:29:03;15.65;54.99
78366;HTU21D;67641;59.864;30.464;2024-02-23T05:31:46;15.68;55.36
78366;HTU21D;67641;59.864;30.464;2024-02-23T05:34:13;15.66;56.06
78366;HTU21D;67641;59.864;30.464;2024-02-23T05:36:39;15.55;56.45
78366;HTU21D;67641;59.864;30.464;2024-02-23T05:39:05;15.81;55.96
78366;HTU21D;67641;59.864;30.464;2024-02-23T05:41:33;16.29;54.13
78366;HTU21D;67641;59.864;30.464;2024-02-23T05:43:59;16.73;53.10
78366;HTU21D;67641;59.864;30.464;2024-02-23T05:46:26;17.45;50.60
78366;HTU21D;67641;59.864;30.464;2024-02-23T05:48:52;18.25;48.94
78366;HTU21D;67641;59.864;30.464;2024-02-23T05:51:18;19.15;46.86
78366;HTU21D;67641;59.864;30.464;2024-02-23T05:53:45;20.05;44.22
78366;HTU21D;67641;59.864;30.464;2024-02-23T05:56:11;21.00;42.22
78366;HTU21D;67641;59.864;30.464;2024-02-23T05:58:37;21.72;40.22
78366;HTU21D;67641;59.864;30.464;2024-02-23T06:01:04;22.08;38.95
78366;HTU21D;67641;59.864;30.464;2024-02-23T06:03:30;22.25;38.23
78366;HTU21D;67641;59.864;30.464;2024-02-23T06:05:56;22.61;37.72
78366;HTU21D;67641;59.864;30.464;2024-02-23T06:08:22;23.20;36.73
78366;HTU21D;67641;59.864;30.464;2024-02-23T06:10:48;23.87;35.90
78366;HTU21D;67641;59.864;30.464;2024-02-23T06:13:14;24.01;35.43
78366;HTU21D;67641;59.864;30.464;2024-02-23T06:15:41;23.59;36.10
78366;HTU21D;67641;59.864;30.464;2024-02-23T06:18:07;23.71;35.77
78366;HTU21D;67641;59.864;30.464;2024-02-23T06:20:34;23.46;35.89
78366;HTU21D;67641;59.864;30.464;2024-02-23T06:23:00;23.47;35.80
78366;HTU21D;67641;59.864;30.464;2024-02-23T06:25:26;23.42;35.76
78366;HTU21D;67641;59.864;30.464;2024-02-23T06:27:52;23.90;35.10
78366;HTU21D;67641;59.864;30.464;2024-02-23T06:30:18;24.74;34.06
78366;HTU21D;67641;59.864;30.464;2024-02-23T06:32:44;25.34;32.35
78366;HTU21D;67641;59.864;30.464;2024-02-23T06:35:11;25.51;31.63
78366;HTU21D;67641;59.864;30.464;2024-02-23T06:37:37;25.76;31.41
78366;HTU21D;67641;59.864;30.464;2024-02-23T06:40:04;26.05;31.43
78366;HTU21D;67641;59.864;30.464;2024-02-23T06:42:30;26.55;31.19
78366;HTU21D;67641;59.864;30.464;2024-02-23T06:44:56;27.25;30.36
78366;HTU21D;67641;59.864;30.464;2024-02-23T06:47:23;27.80;30.42
78366;HTU21D;67641;59.864;30.464;2024-02-23T06:49:50;28.14;30.67
78366;HTU21D;67641;59.864;30.464;2024-02-23T06:52:16;27.98;32.23
78366;HTU21D;67641;59.864;30.464;2024-02-23T06:54:44;27.69;33.39
78366;HTU21D;67641;59.864;30.464;2024-02-23T06:57:10;27.19;35.96
78366;HTU21D;67641;59.864;30.464;2024-02-23T06:59:37;26.76;37.52
78366;HTU21D;67641;59.864;30.464;2024-02-23T07:02:03;26.40;38.97
78366;HTU21D;67641;59.864;30.464;2024-02-23T07:04:30;26.10;39.65
78366;HTU21D;67641;59.864;30.464;2024-02-23T07:06:56;25.59;41.41
78366;HTU21D;67641;59.864;30.464;2024-02-23T07:09:22;25.43;42.05
78366;HTU21D;67641;59.864;30.464;2024-02-23T07:11:48;25.73;42.30
78366;HTU21D;67641;59.864;30.464;2024-02-23T07:14:14;26.06;41.36
78366;HTU21D;67641;59.864;30.464;2024-02-23T07:16:42;26.06;41.10
78366;HTU21D;67641;59.864;30.464;2024-02-23T07:19:09;25.89;42.48
78366;HTU21D;67641;59.864;30.464;2024-02-23T07:21:35;25.90;43.42
78366;HTU21D;67641;59.864;30.464;2024-02-23T07:24:01;25.90;43.48
78366;HTU21D;67641;59.864;30.464;2024-02-23T07:26:27;26.22;43.13
78366;HTU21D;67641;59.864;30.464;2024-02-23T07:28:56;26.48;42.91
78366;HTU21D;67641;59.864;30.464;2024-02-23T07:31:22;26.95;41.90
78366;HTU21D;67641;59.864;30.464;2024-02-23T07:33:48;27.66;40.81
78366;HTU21D;67641;59.864;30.464;2024-02-23T07:36:15;28.17;39.36
78366;HTU21D;67641;59.864;30.464;2024-02-23T07:38:41;28.06;39.86
78366;HTU21D;67641;59.864;30.464;2024-02-23T07:41:07;27.22;41.56
78366;HTU21D;67641;59.864;30.464;2024-02-23T07:43:33;26.93;42.50
78366;HTU21D;67641;59.864;30.464;2024-02-23T07:46:00;26.57;42.98
78366;HTU21D;67641;59.864;30.464;2024-02-23T07:48:28;25.98;44.55
78366;HTU21D;67641;59.864;30.464;2024-02-23T07:50:54;25.37;45.91
78366;HTU21D;67641;59.864;30.464;2024-02-23T07:53:20;24.90;47.40
78366;HTU21D;67641;59.864;30.464;2024-02-23T07:55:46;25.17;46.83
78366;HTU21D;67641;59.864;30.464;2024-02-23T07:58:12;25.49;46.28
78366;HTU21D;67641;59.864;30.464;2024-02-23T08:00:39;25.51;46.35
78366;HTU21D;67641;59.864;30.464;2024-02-23T08:03:05;25.53;45.79
78366;HTU21D;67641;59.864;30.464;2024-02-23T08:05:32;25.00;47.12
78366;HTU21D;67641;59.864;30.464;2024-02-23T08:07:58;24.42;48.76
78366;HTU21D;67641;59.864;30.464;2024-02-23T08:10:24;24.51;48.43
78366;HTU21D;67641;59.864;30.464;2024-02-23T08:12:51;24.83;48.02
78366;HTU21D;67641;59.864;30.464;2024-02-23T08:15:18;25.23;46.88
78366;HTU21D;67641;59.864;30.464;2024-02-23T08:17:44;25.77;45.69
78366;HTU21D;67641;59.864;30.464;2024-02-23T08:20:10;25.44;46.37
78366;HTU21D;67641;59.864;30.464;2024-02-23T08:22:36;25.98;45.63
78366;HTU21D;67641;59.864;30.464;2024-02-23T08:25:03;26.35;43.80
78366;HTU21D;67641;59.864;30.464;2024-02-23T08:27:29;26.25;44.46
78366;HTU21D;67641;59.864;30.464;2024-02-23T08:29:55;26.08;45.06
78366;HTU21D;67641;59.864;30.464;2024-02-23T08:32:21;26.61;44.03
78366;HTU21D;67641;59.864;30.464;2024-02-23T08:34:48;26.45;43.77
78366;HTU21D;67641;59.864;30.464;2024-02-23T08:37:14;26.17;44.35
78366;HTU21D;67641;59.864;30.464;2024-02-23T08:39:40;25.96;44.71
78366;HTU21D;67641;59.864;30.464;2024-02-23T08:42:06;24.82;46.54
78366;HTU21D;67641;59.864;30.464;2024-02-23T08:44:32;24.18;49.11
78366;HTU21D;67641;59.864;30.464;2024-02-23T08:46:59;23.80;50.03
78366;HTU21D;67641;59.864;30.464;2024-02-23T08:49:25;23.72;50.14
78366;HTU21D;67641;59.864;30.464;2024-02-23T08:51:51;23.88;49.81
78366;HTU21D;67641;59.864;30.464;2024-02-23T08:54:17;23.55;50.69
78366;HTU21D;67641;59.864;30.464;2024-02-23T08:56:43;23.51;50.95
78366;HTU21D;67641;59.864;30.464;2024-02-23T08:59:09;23.64;50.50
78366;HTU21D;67641;59.864;30.464;2024-02-23T09:01:35;23.82;50.44
78366;HTU21D;67641;59.864;30.464;2024-02-23T09:04:02;23.54;50.43
78366;HTU21D;67641;59.864;30.464;2024-02-23T09:06:28;23.61;50.28
78366;HTU21D;67641;59.864;30.464;2024-02-23T09:08:54;24.36;48.96
78366;HTU21D;67641;59.864;30.464;2024-02-23T09:11:22;24.72;47.92
78366;HTU21D;67641;59.864;30.464;2024-02-23T09:13:48;24.53;48.33
78366;HTU21D;67641;59.864;30.464;2024-02-23T09:16:14;24.69;48.27
78366;HTU21D;67641;59.864;30.464;2024-02-23T09:18:40;24.88;48.21
78366;HTU21D;67641;59.864;30.464;2024-02-23T09:21:06;25.20;46.71
78366;HTU21D;67641;59.864;30.464;2024-02-23T09:23:32;25.57;45.80
78366;HTU21D;67641;59.864;30.464;2024-02-23T09:25:59;24.91;47.44
78366;HTU21D;67641;59.864;30.464;2024-02-23T09:28:25;24.39;48.49
78366;HTU21D;67641;59.864;30.464;2024-02-23T09:30:51;23.72;50.29
78366;HTU21D;67641;59.864;30.464;2024-02-23T09:33:17;23.51;51.49
78366;HTU21D;67641;59.864;30.464;2024-02-23T09:35:43;23.15;52.33
78366;HTU21D;67641;59.864;30.464;2024-02-23T09:38:10;23.09;52.67
78366;HTU21D;67641;59.864;30.464;2024-02-23T09:40:36;23.27;52.53
78366;HTU21D;67641;59.864;30.464;2024-02-23T09:43:03;23.35;52.85
78366;HTU21D;67641;59.864;30.464;2024-02-23T09:45:33;23.43;51.75
78366;HTU21D;67641;59.864;30.464;2024-02-23T09:48:00;23.13;52.98
78366;HTU21D;67641;59.864;30.464;2024-02-23T09:50:29;22.79;53.36
78366;HTU21D;67641;59.864;30.464;2024-02-23T09:52:58;22.58;54.49
78366;HTU21D;67641;59.864;30.464;2024-02-23T09:55:24;23.27;52.72
78366;HTU21D;67641;59.864;30.464;2024-02-23T09:57:52;23.42;51.79
78366;HTU21D;67641;59.864;30.464;2024-02-23T10:00:23;23.28;52.09
78366;HTU21D;67641;59.864;30.464;2024-02-23T10:02:50;23.42;52.36
78366;HTU21D;67641;59.864;30.464;2024-02-23T10:05:16;23.11;52.95
78366;HTU21D;67641;59.864;30.464;2024-02-23T10:07:43;23.07;52.94
78366;HTU21D;67641;59.864;30.464;2024-02-23T10:10:10;22.62;54.28
78366;HTU21D;67641;59.864;30.464;2024-02-23T10:12:37;22.62;54.31
78366;HTU21D;67641;59.864;30.464;2024-02-23T10:15:04;22.88;54.00
78366;HTU21D;67641;59.864;30.464;2024-02-23T10:17:30;22.92;53.32
78366;HTU21D;67641;59.864;30.464;2024-02-23T10:19:56;23.36;51.53
78366;HTU21D;67641;59.864;30.464;2024-02-23T10:22:31;23.41;51.13
78366;HTU21D;67641;59.864;30.464;2024-02-23T10:24:57;23.40;51.24
78366;HTU21D;67641;59.864;30.464;2024-02-23T10:27:23;24.39;48.68
78366;HTU21D;67641;59.864;30.464;2024-02-23T10:29:50;24.30;48.66
78366;HTU21D;67641;59.864;30.464;2024-02-23T10:32:18;25.03;47.34
78366;HTU21D;67641;59.864;30.464;2024-02-23T10:34:47;24.65;48.41
78366;HTU21D;67641;59.864;30.464;2024-02-23T10:37:14;24.70;47.72
78366;HTU21D;67641;59.864;30.464;2024-02-23T10:39:40;24.56;48.22
78366;HTU21D;67641;59.864;30.464;2024-02-23T10:42:09;24.80;47.67
78366;HTU21D;67641;59.864;30.464;2024-02-23T10:44:37;24.70;47.02
78366;HTU21D;67641;59.864;30.464;2024-02-23T10:47:04;24.79;47.57
78366;HTU21D;67641;59.864;30.464;2024-02-23T10:49:31;24.27;48.70
78366;HTU21D;67641;59.864;30.464;2024-02-23T10:51:58;23.74;49.95
78366;HTU21D;67641;59.864;30.464;2024-02-23T10:54:25;23.59;50.68
78366;HTU21D;67641;59.864;30.464;2024-02-23T10:56:52;23.58;50.92
78366;HTU21D;67641;59.864;30.464;2024-02-23T10:59:19;23.25;51.73
78366;HTU21D;67641;59.864;30.464;2024-02-23T11:01:48;23.26;52.26
78366;HTU21D;67641;59.864;30.464;2024-02-23T11:04:16;23.06;52.43
78366;HTU21D;67641;59.864;30.464;2024-02-23T11:06:49;22.87;53.13
78366;HTU21D;67641;59.864;30.464;2024-02-23T11:09:15;22.68;53.85
78366;HTU21D;67641;59.864;30.464;2024-02-23T11:11:52;22.49;53.96
78366;HTU21D;67641;59.864;30.464;2024-02-23T11:14:29;22.50;54.10
78366;HTU21D;67641;59.864;30.464;2024-02-23T11:16:56;22.04;55.81
78366;HTU21D;67641;59.864;30.464;2024-02-23T11:19:32;21.88;56.58
78366;HTU21D;67641;59.864;30.464;2024-02-23T11:21:59;21.93;57.06
78366;HTU21D;67641;59.864;30.464;2024-02-23T11:24:28;21.85;57.16
78366;HTU21D;67641;59.864;30.464;2024-02-23T11:27:01;21.73;57.64
78366;HTU21D;67641;59.864;30.464;2024-02-23T11:29:34;22.03;56.97
78366;HTU21D;67641;59.864;30.464;2024-02-23T11:32:02;22.42;56.32
78366;HTU21D;67641;59.864;30.464;2024-02-23T11:34:30;22.20;56.92
78366;HTU21D;67641;59.864;30.464;2024-02-23T11:36:56;22.49;55.95
78366;HTU21D;67641;59.864;30.464;2024-02-23T11:39:26;22.10;57.42
78366;HTU21D;67641;59.864;30.464;2024-02-23T11:41:52;22.33;56.48
78366;HTU21D;67641;59.864;30.464;2024-02-23T11:44:18;22.62;55.81
78366;HTU21D;67641;59.864;30.464;2024-02-23T11:46:46;22.52;56.05
78366;HTU21D;67641;59.864;30.464;2024-02-23T11:49:14;22.66;56.09
78366;HTU21D;67641;59.864;30.464;2024-02-23T11:51:41;22.58;55.12
78366;HTU21D;67641;59.864;30.464;2024-02-23T11:54:08;22.22;56.12
78366;HTU21D;67641;59.864;30.464;2024-02-23T11:56:34;22.03;57.49
78366;HTU21D;67641;59.864;30.464;2024-02-23T11:59:01;21.90;58.16
78366;HTU21D;67641;59.864;30.464;2024-02-23T12:01:30;21.85;57.97
78366;HTU21D;67641;59.864;30.464;2024-02-23T12:03:57;21.76;57.60
78366;HTU21D;67641;59.864;30.464;2024-02-23T12:06:24;21.66;57.75
78366;HTU21D;67641;59.864;30.464;2024-02-23T12:08:53;21.62;58.00
78366;HTU21D;67641;59.864;30.464;2024-02-23T12:11:19;21.46;58.39
78366;HTU21D;67641;59.864;30.464;2024-02-23T12:13:46;21.13;60.08
78366;HTU21D;67641;59.864;30.464;2024-02-23T12:16:14;21.23;59.95
78366;HTU21D;67641;59.864;30.464;2024-02-23T12:18:40;21.34;59.02
78366;HTU21D;67641;59.864;30.464;2024-02-23T12:21:07;21.23;58.21
78366;HTU21D;67641;59.864;30.464;2024-02-23T12:23:48;21.16;58.44
78366;HTU21D;67641;59.864;30.464;2024-02-23T12:26:17;20.86;60.09
78366;HTU21D;67641;59.864;30.464;2024-02-23T12:28:43;20.79;60.89
78366;HTU21D;67641;59.864;30.464;2024-02-23T12:31:10;20.54;61.67
78366;HTU21D;67641;59.864;30.464;2024-02-23T12:33:38;20.37;61.48
78366;HTU21D;67641;59.864;30.464;2024-02-23T12:36:08;20.53;61.31
78366;HTU21D;67641;59.864;30.464;2024-02-23T12:38:35;20.74;61.01
78366;HTU21D;67641;59.864;30.464;2024-02-23T12:41:02;21.03;60.42
78366;HTU21D;67641;59.864;30.464;2024-02-23T12:43:28;21.17;59.49
78366;HTU21D;67641;59.864;30.464;2024-02-23T12:45:57;21.06;59.63
78366;HTU21D;67641;59.864;30.464;2024-02-23T12:48:23;20.88;60.54
78366;HTU21D;67641;59.864;30.464;2024-02-23T12:50:50;20.96;61.05
78366;HTU21D;67641;59.864;30.464;2024-02-23T12:53:37;20.72;62.43
78366;HTU21D;67641;59.864;30.464;2024-02-23T12:56:05;20.66;61.75
78366;HTU21D;67641;59.864;30.464;2024-02-23T12:58:35;20.60;62.39
78366;HTU21D;67641;59.864;30.464;2024-02-23T13:01:01;20.58;62.40
78366;HTU21D;67641;59.864;30.464;2024-02-23T13:03:28;20.61;62.36
78366;HTU21D;67641;59.864;30.464;2024-02-23T13:05:55;20.91;61.91
78366;HTU21D;67641;59.864;30.464;2024-02-23T13:08:22;21.60;58.22
78366;HTU21D;67641;59.864;30.464;2024-02-23T13:10:49;21.72;56.57
78366;HTU21D;67641;59.864;30.464;2024-02-23T13:13:15;21.45;57.15
78366;HTU21D;67641;59.864;30.464;2024-02-23T13:15:43;21.38;57.35
78366;HTU21D;67641;59.864;30.464;2024-02-23T13:18:10;21.19;58.47
78366;HTU21D;67641;59.864;30.464;2024-02-23T13:20:39;21.09;58.79
78366;HTU21D;67641;59.864;30.464;2024-02-23T13:23:09;21.14;58.43
78366;HTU21D;67641;59.864;30.464;2024-02-23T13:25:35;20.84;60.31
78366;HTU21D;67641;59.864;30.464;2024-02-23T13:28:02;20.89;59.26
78366;HTU21D;67641;59.864;30.464;2024-02-23T13:30:30;20.87;59.23
78366;HTU21D;67641;59.864;30.464;2024-02-23T13:32:56;20.96;58.86
78366;HTU21D;67641;59.864;30.464;2024-02-23T13:35:22;21.02;58.88
78366;HTU21D;67641;59.864;30.464;2024-02-23T13:37:48;21.18;58.99
78366;HTU21D;67641;59.864;30.464;2024-02-23T13:40:15;21.32;58.73
78366;HTU21D;67641;59.864;30.464;2024-02-23T13:42:41;21.04;59.64
78366;HTU21D;67641;59.864;30.464;2024-02-23T13:45:08;20.81;60.44
78366;HTU21D;67641;59.864;30.464;2024-02-23T13:47:35;20.72;60.64
78366;HTU21D;67641;59.864;30.464;2024-02-23T13:50:02;20.55;61.13
78366;HTU21D;67641;59.864;30.464;2024-02-23T13:52:29;20.72;60.40
78366;HTU21D;67641;59.864;30.464;2024-02-23T13:54:56;20.74;60.70
78366;HTU21D;67641;59.864;30.464;2024-02-23T13:57:22;20.64;61.05
78366;HTU21D;67641;59.864;30.464;2024-02-23T13:59:49;20.70;60.87
78366;HTU21D;67641;59.864;30.464;2024-02-23T14:02:16;20.59;60.93
78366;HTU21D;67641;59.864;30.464;2024-02-23T14:04:44;20.58;61.38
78366;HTU21D;67641;59.864;30.464;2024-02-23T14:07:11;20.45;60.09
78366;HTU21D;67641;59.864;30.464;2024-02-23T14:09:37;20.27;60.61
78366;HTU21D;67641;59.864;30.464;2024-02-23T14:12:03;20.24;60.41
78366;HTU21D;67641;59.864;30.464;2024-02-23T14:14:30;20.06;61.03
78366;HTU21D;67641;59.864;30.464;2024-02-23T14:16:56;20.12;60.43
78366;HTU21D;67641;59.864;30.464;2024-02-23T14:19:22;20.18;59.87
78366;HTU21D;67641;59.864;30.464;2024-02-23T14:21:48;20.25;59.74
78366;HTU21D;67641;59.864;30.464;2024-02-23T14:24:15;20.21;60.35
78366;HTU21D;67641;59.864;30.464;2024-02-23T14:26:41;20.14;61.20
78366;HTU21D;67641;59.864;30.464;2024-02-23T14:29:07;20.06;61.52
78366;HTU21D;67641;59.864;30.464;2024-02-23T14:31:34;20.03;61.52
78366;HTU21D;67641;59.864;30.464;2024-02-23T14:34:00;19.90;62.39
78366;HTU21D;67641;59.864;30.464;2024-02-23T14:36:26;19.94;62.50
78366;HTU21D;67641;59.864;30.464;2024-02-23T14:38:52;19.80;62.66
78366;HTU21D;67641;59.864;30.464;2024-02-23T14:41:18;19.63;63.52
78366;HTU21D;67641;59.864;30.464;2024-02-23T14:43:44;19.66;63.41
78366;HTU21D;67641;59.864;30.464;2024-02-23T14:46:11;19.65;63.44
78366;HTU21D;67641;59.864;30.464;2024-02-23T14:48:38;19.69;63.51
78366;HTU21D;67641;59.864;30.464;2024-02-23T14:51:04;19.65;63.63
78366;HTU21D;67641;59.864;30.464;2024-02-23T14:53:30;19.62;63.69
78366;HTU21D;67641;59.864;30.464;2024-02-23T14:55:56;19.63;63.75
78366;HTU21D;67641;59.864;30.464;2024-02-23T14:58:22;19.60;64.15
78366;HTU21D;67641;59.864;30.464;2024-02-23T15:00:48;19.45;64.37